Time;durP1;ratioP1;P1;durP2;ratioP2;P2;SDS_P1;SDS_P2;PMS_P1;PMS_P2;Temp;Humidity;BMP_temperature;BMP_pressure;BME280_temperature;BME280_humidity;BME280_pressure;Samples;Min_cycle;Max_cycle;Signal;HPM_P1;HPM_P2
2023/05/30 00:00:28;;;;;;;10.32;7.28;;;;;;;26.22;40.94;99593.25;4245318;33;34060;-69
2023/05/30 00:02:56;;;;;;;11.65;7.37;;;;;;;26.21;40.92;99589.69;4245529;33;33490;-70
2023/05/30 00:05:24;;;;;;;10.00;6.93;;;;;;;26.21;40.93;99589.69;4246404;33;34024;-65
2023/05/30 00:07:52;;;;;;;9.60;6.70;;;;;;;26.20;40.90;99597.03;4246356;33;34921;-70
2023/05/30 00:10:19;;;;;;;13.25;7.50;;;;;;;26.22;40.87;99593.25;4246443;33;33495;-67
2023/05/30 00:12:47;;;;;;;9.73;7.00;;;;;;;26.20;40.97;99588.00;4246306;33;34579;-67
2023/05/30 00:15:16;;;;;;;8.20;6.82;;;;;;;26.20;40.92;99586.09;4248854;33;33882;-70
2023/05/30 00:17:44;;;;;;;8.88;6.80;;;;;;;26.20;40.82;99594.31;4260593;33;34961;-71
2023/05/30 00:20:11;;;;;;;10.40;7.15;;;;;;;26.22;40.74;99590.53;4260496;33;33647;-70
2023/05/30 00:22:41;;;;;;;8.35;6.20;;;;;;;26.19;40.80;99581.72;4260478;33;33850;-68
2023/05/30 00:25:09;;;;;;;11.77;6.28;;;;;;;26.19;40.71;99586.38;4260561;33;34697;-70
2023/05/30 00:27:37;;;;;;;12.60;6.95;;;;;;;26.18;40.70;99580.06;4260255;33;34384;-70
2023/05/30 00:30:04;;;;;;;11.23;6.47;;;;;;;26.18;40.64;99585.53;4247677;33;33694;-65
2023/05/30 00:32:33;;;;;;;8.52;6.15;;;;;;;26.18;40.67;99590.19;4260441;33;34119;-65
2023/05/30 00:35:01;;;;;;;8.88;6.37;;;;;;;26.16;40.73;99584.97;4260271;33;34846;-64
2023/05/30 00:37:33;;;;;;;8.40;6.40;;;;;;;26.16;40.80;99589.59;4260465;33;34078;-65
2023/05/30 00:40:01;;;;;;;9.25;6.65;;;;;;;26.17;40.76;99581.16;4260378;33;33583;-65
2023/05/30 00:42:29;;;;;;;9.32;6.53;;;;;;;26.16;40.77;99578.66;4260541;33;33821;-64
2023/05/30 00:44:57;;;;;;;8.40;6.50;;;;;;;26.16;40.73;99575.91;4260300;33;34702;-64
2023/05/30 00:47:24;;;;;;;10.38;6.87;;;;;;;26.16;40.80;99573.19;4260588;33;34225;-65
2023/05/30 00:49:52;;;;;;;10.55;6.80;;;;;;;26.15;40.85;99575.09;4247434;33;33238;-65
2023/05/30 00:52:20;;;;;;;11.10;7.10;;;;;;;26.15;40.88;99574.25;4260323;33;34098;-65
2023/05/30 00:54:48;;;;;;;9.30;6.62;;;;;;;26.15;40.88;99580.56;4260284;33;34431;-65
2023/05/30 00:57:17;;;;;;;11.05;6.57;;;;;;;26.14;40.80;99575.34;4247657;33;34220;-65
2023/05/30 00:59:45;;;;;;;7.90;5.57;;;;;;;26.14;40.74;99578.91;4259184;33;33524;-65
2023/05/30 01:02:13;;;;;;;9.77;6.47;;;;;;;26.14;40.69;99583.56;4259007;33;33627;-64
2023/05/30 01:04:41;;;;;;;8.88;6.35;;;;;;;26.14;40.63;99578.09;4260240;33;34379;-65
2023/05/30 01:07:10;;;;;;;10.10;6.28;;;;;;;26.15;40.54;99590.66;4260333;33;34580;-64
2023/05/30 01:09:38;;;;;;;8.38;6.30;;;;;;;26.13;40.62;99585.47;4259996;33;34318;-65
2023/05/30 01:12:25;;;;;;;10.60;6.50;;;;;;;26.13;40.67;99580.00;4259306;33;34045;-66
2023/05/30 01:15:13;;;;;;;9.43;6.85;;;;;;;26.13;40.66;99580.00;4246780;33;34007;-64
2023/05/30 01:17:44;;;;;;;9.82;6.28;;;;;;;26.13;40.59;99582.72;4233306;33;34894;-64
2023/05/30 01:20:12;;;;;;;8.73;5.85;;;;;;;26.12;40.54;99586.53;4245926;33;33332;-64
2023/05/30 01:23:18;;;;;;;15.05;6.68;;;;;;;26.11;40.67;99587.63;4244902;33;34668;-68
2023/05/30 01:26:05;;;;;;;7.57;5.80;;;;;;;26.14;40.70;99583.56;4246009;33;34537;-69
2023/05/30 01:28:33;;;;;;;9.43;5.70;;;;;;;26.11;40.73;99594.97;4245808;33;34985;-69
2023/05/30 01:31:01;;;;;;;9.60;6.50;;;;;;;26.09;40.80;99591.69;4244837;33;33728;-68
2023/05/30 01:33:28;;;;;;;10.75;6.40;;;;;;;26.08;40.86;99588.13;4245886;33;34656;-64
2023/05/30 01:35:56;;;;;;;8.38;6.45;;;;;;;26.09;40.92;99583.47;4244612;33;33768;-65
2023/05/30 01:38:24;;;;;;;10.20;6.07;;;;;;;26.09;40.89;99584.31;4244657;33;34412;-65
2023/05/30 01:40:53;;;;;;;9.43;6.78;;;;;;;26.09;40.91;99575.28;4245858;33;33569;-64
2023/05/30 01:43:40;;;;;;;7.25;5.90;;;;;;;26.09;40.83;99586.22;4244855;33;34155;-68
2023/05/30 01:46:33;;;;;;;9.25;6.60;;;;;;;26.09;40.88;99576.09;4244769;33;34727;-69
2023/05/30 01:49:26;;;;;;;9.07;6.50;;;;;;;26.11;40.71;99575.84;4245772;33;34784;-70
2023/05/30 01:52:17;;;;;;;9.48;6.22;;;;;;;26.11;40.61;99579.44;4245655;33;33632;-70
2023/05/30 01:54:47;;;;;;;10.77;6.65;;;;;;;26.07;40.75;99574.72;4245697;33;33151;-69
2023/05/30 01:57:16;;;;;;;8.77;6.43;;;;;;;26.07;40.63;99572.81;4232223;33;34425;-70
2023/05/30 01:59:44;;;;;;;8.38;6.43;;;;;;;26.07;40.65;99572.81;4246093;33;34259;-71
2023/05/30 02:02:11;;;;;;;9.15;6.30;;;;;;;26.07;40.62;99575.53;4232814;33;33465;-69
2023/05/30 02:04:39;;;;;;;10.45;6.60;;;;;;;26.08;40.69;99570.88;4244495;33;34771;-70
2023/05/30 02:07:07;;;;;;;10.48;6.50;;;;;;;26.07;40.60;99575.53;4245654;33;33894;-69
2023/05/30 02:09:34;;;;;;;9.20;6.55;;;;;;;26.08;40.59;99577.19;4245467;33;34373;-70
2023/05/30 02:12:04;;;;;;;8.40;6.65;;;;;;;26.08;40.55;99576.34;4245921;33;34078;-70
2023/05/30 02:14:35;;;;;;;9.18;6.47;;;;;;;26.08;40.54;99574.44;4245757;33;34553;-70
2023/05/30 02:17:03;;;;;;;7.40;6.22;;;;;;;26.09;40.57;99570.62;4258508;33;33865;-70
2023/05/30 02:19:31;;;;;;;8.30;6.12;;;;;;;26.07;40.59;99583.75;4259654;33;34262;-69
2023/05/30 02:21:58;;;;;;;9.30;6.50;;;;;;;26.08;40.64;99576.34;4259742;33;33772;-68
2023/05/30 02:24:26;;;;;;;10.50;6.60;;;;;;;26.07;40.62;99583.75;4259527;33;34573;-69
2023/05/30 02:26:54;;;;;;;8.05;5.95;;;;;;;26.07;40.52;99567.34;4259667;33;34497;-68
2023/05/30 02:29:21;;;;;;;10.10;6.30;;;;;;;26.07;40.58;99582.91;4258358;33;34972;-69
2023/05/30 02:31:49;;;;;;;8.85;6.05;;;;;;;26.07;40.53;99574.72;4259573;33;33618;-69
2023/05/30 02:34:17;;;;;;;8.48;6.05;;;;;;;26.07;40.67;99575.53;4259555;33;33990;-70
2023/05/30 02:36:45;;;;;;;8.80;6.28;;;;;;;26.07;40.72;99574.72;4259600;33;34009;-69
2023/05/30 02:39:13;;;;;;;8.70;6.20;;;;;;;26.06;40.74;99570.28;4259355;33;34134;-70
2023/05/30 02:41:42;;;;;;;8.90;6.10;;;;;;;26.04;40.80;99561.53;4259488;33;34309;-69
2023/05/30 02:44:09;;;;;;;9.55;6.28;;;;;;;26.06;40.83;99573.03;4259334;33;33982;-70
2023/05/30 02:46:37;;;;;;;8.57;6.57;;;;;;;26.04;40.82;99562.34;4259600;33;35213;-67
2023/05/30 02:49:06;;;;;;;7.93;5.80;;;;;;;26.03;40.80;99560.69;4259558;33;33870;-69
2023/05/30 02:51:33;;;;;;;8.02;6.50;;;;;;;26.04;40.84;99556.06;4259333;33;33401;-69
2023/05/30 02:54:02;;;;;;;9.43;6.50;;;;;;;26.03;40.84;99555.22;4259472;33;33580;-70
2023/05/30 02:56:31;;;;;;;9.25;5.75;;;;;;;26.03;40.85;99559.87;4259123;33;33945;-69
2023/05/30 02:58:59;;;;;;;10.20;6.03;;;;;;;26.04;40.82;99564.25;4259320;33;34114;-66
2023/05/30 03:01:27;;;;;;;8.75;6.18;;;;;;;26.03;40.88;99559.87;4259210;33;33604;-69
2023/05/30 03:03:55;;;;;;;10.98;6.43;;;;;;;26.03;40.84;99565.34;4258220;33;34531;-70
2023/05/30 03:06:24;;;;;;;8.55;6.28;;;;;;;26.03;40.81;99562.62;4259282;33;33674;-70
2023/05/30 03:08:57;;;;;;;8.63;6.28;;;;;;;26.02;40.79;99564.53;4260303;33;33688;-69
2023/05/30 03:11:25;;;;;;;13.35;6.32;;;;;;;26.03;40.76;99576.28;4259747;33;34610;-70
2023/05/30 03:13:53;;;;;;;9.20;6.57;;;;;;;26.03;40.71;99579.00;4260747;33;34012;-70
2023/05/30 03:16:20;;;;;;;10.73;6.22;;;;;;;26.02;40.88;99580.94;4251863;33;33915;-70
2023/05/30 03:18:49;;;;;;;8.93;6.35;;;;;;;26.01;40.88;99581.97;4247015;33;34374;-70
2023/05/30 03:21:17;;;;;;;8.32;5.93;;;;;;;26.02;40.87;99580.06;4246833;33;33644;-69
2023/05/30 03:23:45;;;;;;;9.90;6.40;;;;;;;26.01;40.92;99572.94;4246649;33;34746;-69
2023/05/30 03:26:13;;;;;;;9.60;6.15;;;;;;;26.00;40.92;99577.59;4246942;33;34761;-69
2023/05/30 03:28:40;;;;;;;11.35;6.43;;;;;;;26.01;40.76;99576.50;4245530;33;33763;-70
2023/05/30 03:31:08;;;;;;;9.70;6.20;;;;;;;26.01;40.81;99590.19;4246956;33;34558;-69
2023/05/30 03:33:36;;;;;;;8.88;6.22;;;;;;;26.01;40.93;99586.62;4246944;33;34070;-69
2023/05/30 03:36:04;;;;;;;10.50;6.53;;;;;;;26.00;41.02;99588.53;4245595;33;34478;-70
2023/05/30 03:38:31;;;;;;;8.13;5.80;;;;;;;26.00;41.00;99585.78;4246528;33;34328;-70
2023/05/30 03:41:00;;;;;;;9.93;6.00;;;;;;;26.00;40.96;99596.72;4246788;33;34549;-69
2023/05/30 03:43:28;;;;;;;9.65;6.25;;;;;;;26.00;40.97;99590.44;4246481;33;33853;-69
2023/05/30 03:45:56;;;;;;;8.95;6.32;;;;;;;26.00;40.98;99604.09;4246865;33;34560;-70
2023/05/30 03:48:24;;;;;;;8.68;6.00;;;;;;;25.99;40.90;99600.53;4246920;33;33991;-69
2023/05/30 03:50:51;;;;;;;9.95;6.22;;;;;;;25.99;40.97;99600.53;4246351;33;33458;-64
2023/05/30 03:53:19;;;;;;;8.05;6.07;;;;;;;25.98;40.98;99604.37;4246517;33;33861;-69
2023/05/30 03:55:47;;;;;;;10.15;6.10;;;;;;;25.99;40.95;99597.00;4246502;33;33678;-69
2023/05/30 03:58:14;;;;;;;8.63;6.22;;;;;;;25.99;40.92;99605.19;4246721;33;33999;-70
2023/05/30 04:00:42;;;;;;;10.38;6.07;;;;;;;25.99;40.83;99606.00;4246552;33;34004;-69
2023/05/30 04:03:10;;;;;;;9.52;6.87;;;;;;;25.98;40.87;99609.84;4246417;33;34849;-70
2023/05/30 04:05:37;;;;;;;7.78;5.70;;;;;;;25.99;40.98;99607.94;4246753;33;33823;-69
2023/05/30 04:08:05;;;;;;;8.18;5.57;;;;;;;25.98;41.01;99606.28;4246714;33;34732;-68
2023/05/30 04:10:33;;;;;;;9.05;6.47;;;;;;;25.97;41.03;99599.94;4271017;33;33380;-69
2023/05/30 04:13:01;;;;;;;9.18;6.28;;;;;;;25.98;40.86;99611.75;4260384;33;33780;-66
2023/05/30 04:15:28;;;;;;;9.55;6.47;;;;;;;25.98;40.75;99611.75;4256784;33;35058;-68
2023/05/30 04:18:01;;;;;;;10.68;6.15;;;;;;;25.98;40.61;99620.78;4246572;33;34586;-70
2023/05/30 04:20:29;;;;;;;9.70;6.62;;;;;;;25.97;40.73;99616.34;4246016;33;33324;-69
2023/05/30 04:22:57;;;;;;;9.13;6.05;;;;;;;25.97;40.84;99618.25;4246425;33;33833;-69
2023/05/30 04:25:25;;;;;;;12.23;6.22;;;;;;;25.96;40.94;99625.63;4246250;33;34194;-68
2023/05/30 04:27:54;;;;;;;9.27;6.40;;;;;;;25.97;40.92;99626.47;4248817;33;34104;-69
2023/05/30 04:30:22;;;;;;;10.32;6.22;;;;;;;25.96;40.92;99622.91;4260387;33;33026;-68
2023/05/30 04:32:50;;;;;;;11.12;6.35;;;;;;;25.96;40.97;99633.84;4260285;33;34700;-68
2023/05/30 04:35:17;;;;;;;10.68;6.68;;;;;;;25.97;40.96;99634.66;4247650;33;33968;-68
2023/05/30 04:37:45;;;;;;;12.05;6.60;;;;;;;25.97;40.98;99626.47;4260468;33;33788;-68
2023/05/30 04:40:13;;;;;;;7.68;6.10;;;;;;;25.95;40.96;99638.47;4260474;33;34219;-70
2023/05/30 04:42:41;;;;;;;9.43;6.62;;;;;;;25.95;40.98;99640.38;4247601;33;34095;-70
2023/05/30 04:45:09;;;;;;;10.05;6.20;;;;;;;25.96;40.94;99636.56;4247848;33;34916;-68
2023/05/30 04:47:38;;;;;;;8.65;5.65;;;;;;;25.95;40.92;99645.84;4260195;33;34180;-70
2023/05/30 04:50:09;;;;;;;9.85;6.50;;;;;;;25.95;40.98;99646.69;4260333;33;33670;-67
2023/05/30 04:52:37;;;;;;;9.20;6.20;;;;;;;25.95;40.93;99641.22;4260474;33;33859;-69
2023/05/30 04:55:05;;;;;;;13.77;6.25;;;;;;;25.95;41.00;99640.38;4260273;33;33794;-68
2023/05/30 04:57:33;;;;;;;9.73;6.18;;;;;;;25.95;41.02;99652.16;4252527;33;33925;-69
2023/05/30 05:00:01;;;;;;;9.00;6.35;;;;;;;25.95;40.96;99646.69;4256618;33;34306;-69
2023/05/30 05:02:29;;;;;;;8.13;5.95;;;;;;;25.96;40.93;99650.25;4260212;33;34634;-69
2023/05/30 05:04:57;;;;;;;9.23;6.15;;;;;;;25.95;40.94;99645.84;4256892;33;33841;-70
2023/05/30 05:07:25;;;;;;;9.20;6.22;;;;;;;25.95;40.97;99648.59;4245989;33;34176;-65
2023/05/30 05:10:07;;;;;;;9.35;6.45;;;;;;;25.95;40.93;99649.41;4245919;33;34597;-65
2023/05/30 05:12:35;;;;;;;9.38;6.35;;;;;;;25.95;40.95;99643.94;4246048;33;33622;-69
2023/05/30 05:15:02;;;;;;;11.00;6.00;;;;;;;25.96;40.92;99652.97;4245795;33;33980;-65
2023/05/30 05:17:30;;;;;;;10.45;6.25;;;;;;;25.97;40.88;99654.62;4249948;33;34843;-64
2023/05/30 05:19:58;;;;;;;10.30;5.85;;;;;;;25.97;40.92;99654.62;4260364;33;33262;-68
2023/05/30 05:22:26;;;;;;;10.07;6.25;;;;;;;25.96;40.95;99650.25;4259948;33;33740;-68
2023/05/30 05:24:54;;;;;;;10.38;5.93;;;;;;;25.96;40.84;99658.44;4259048;33;34535;-67
2023/05/30 05:27:22;;;;;;;10.45;5.93;;;;;;;25.96;40.83;99655.72;4259945;33;34593;-68
2023/05/30 05:29:49;;;;;;;8.75;6.03;;;;;;;25.95;40.79;99663.09;4259922;33;33418;-69
2023/05/30 05:32:17;;;;;;;10.77;6.10;;;;;;;25.95;40.80;99662.25;4257398;33;33839;-67
2023/05/30 05:34:44;;;;;;;9.63;6.47;;;;;;;25.93;40.84;99657.06;4256481;33;34159;-67
2023/05/30 05:37:12;;;;;;;10.80;6.53;;;;;;;25.92;40.86;99669.03;4259969;33;34229;-67
2023/05/30 05:39:40;;;;;;;10.05;6.22;;;;;;;25.91;40.85;99663.81;4260043;33;33676;-67
2023/05/30 05:42:07;;;;;;;11.05;6.28;;;;;;;25.90;40.84;99665.72;4246058;33;34125;-67
2023/05/30 05:44:35;;;;;;;12.77;6.65;;;;;;;25.90;40.83;99668.47;4245837;33;34124;-67
2023/05/30 05:47:02;;;;;;;12.57;6.60;;;;;;;25.89;40.82;99664.09;4246076;33;33868;-67
2023/05/30 05:49:30;;;;;;;8.38;6.20;;;;;;;25.87;40.81;99666.22;4245701;33;34375;-67
2023/05/30 05:51:58;;;;;;;9.85;6.53;;;;;;;25.87;40.81;99668.94;4246533;33;33475;-67
2023/05/30 05:54:28;;;;;;;13.98;7.25;;;;;;;25.87;40.80;99668.13;4262373;33;34792;-68
2023/05/30 05:56:55;;;;;;;11.48;6.80;;;;;;;25.87;40.78;99677.16;4259880;33;34972;-67
2023/05/30 05:59:23;;;;;;;14.75;6.87;;;;;;;25.88;40.83;99667.91;4260039;33;33380;-67
2023/05/30 06:01:51;;;;;;;11.30;6.85;;;;;;;25.86;40.88;99677.41;4249865;33;34322;-67
2023/05/30 06:04:18;;;;;;;13.45;6.47;;;;;;;25.86;40.85;99677.41;4255474;33;34010;-64
2023/05/30 06:06:46;;;;;;;10.13;6.80;;;;;;;25.88;40.84;99677.97;4259848;33;34101;-67
2023/05/30 06:09:13;;;;;;;13.32;6.47;;;;;;;25.87;40.85;99674.41;4259838;33;34522;-67
2023/05/30 06:12:01;;;;;;;14.73;8.07;;;;;;;25.87;40.90;99673.59;4260050;33;33947;-67
2023/05/30 06:14:29;;;;;;;15.93;6.90;;;;;;;25.87;40.90;99690.00;4258635;33;34834;-68
2023/05/30 06:16:57;;;;;;;10.15;6.15;;;;;;;25.86;40.94;99685.59;4253627;33;35457;-67
2023/05/30 06:19:24;;;;;;;19.08;7.30;;;;;;;25.86;40.95;99691.06;4252807;33;34592;-67
2023/05/30 06:21:52;;;;;;;16.67;7.07;;;;;;;25.85;40.93;99692.97;4260121;33;34633;-67
2023/05/30 06:24:20;;;;;;;10.10;6.75;;;;;;;25.85;40.91;99698.44;4259498;33;34344;-68
2023/05/30 06:26:48;;;;;;;12.07;6.07;;;;;;;25.86;40.92;99693.81;4257566;33;34192;-67
2023/05/30 06:29:16;;;;;;;13.05;6.30;;;;;;;25.84;40.91;99696.78;4250778;33;33767;-68
2023/05/30 06:31:43;;;;;;;12.18;6.70;;;;;;;25.85;40.89;99694.88;4259316;33;33925;-67
2023/05/30 06:34:11;;;;;;;10.27;6.45;;;;;;;25.84;40.89;99702.25;4259526;33;34045;-67
2023/05/30 06:36:38;;;;;;;10.18;6.57;;;;;;;25.84;40.87;99695.97;4259542;33;34853;-67
2023/05/30 06:39:06;;;;;;;10.23;6.43;;;;;;;25.83;40.83;99697.00;4259309;33;33978;-67
2023/05/30 06:41:34;;;;;;;13.25;6.43;;;;;;;25.82;40.78;99704.37;4259453;33;33627;-67
2023/05/30 06:44:02;;;;;;;10.75;6.65;;;;;;;25.83;40.77;99697.00;4261064;33;34707;-67
2023/05/30 06:46:29;;;;;;;12.93;6.72;;;;;;;25.81;40.74;99700.00;4260944;33;34913;-67
2023/05/30 06:48:57;;;;;;;11.52;7.10;;;;;;;25.82;40.66;99698.91;4260899;33;33121;-67
2023/05/30 06:51:25;;;;;;;9.88;6.28;;;;;;;25.82;40.61;99707.12;4261043;33;34335;-67
2023/05/30 06:53:52;;;;;;;11.57;6.50;;;;;;;25.81;40.59;99705.47;4261021;33;33839;-67
2023/05/30 06:56:20;;;;;;;11.90;7.03;;;;;;;25.81;40.56;99710.09;4261049;33;34180;-67
2023/05/30 06:58:48;;;;;;;10.77;6.10;;;;;;;25.82;40.49;99714.50;4260364;33;33631;-67
2023/05/30 07:01:16;;;;;;;13.50;6.53;;;;;;;25.81;40.41;99721.03;4261200;33;33703;-67
2023/05/30 07:03:43;;;;;;;11.32;6.32;;;;;;;25.79;40.41;99715.84;4260937;33;34114;-68
2023/05/30 07:06:11;;;;;;;9.85;6.53;;;;;;;25.81;40.38;99715.56;4260926;33;34483;-68
2023/05/30 07:08:38;;;;;;;12.23;6.28;;;;;;;25.80;40.34;99717.47;4260802;33;34497;-68
2023/05/30 07:11:06;;;;;;;10.80;6.75;;;;;;;25.80;40.24;99724.84;4260783;33;33357;-67
2023/05/30 07:13:33;;;;;;;8.95;6.22;;;;;;;25.81;40.21;99726.50;4248192;33;34587;-67
2023/05/30 07:16:01;;;;;;;13.50;6.45;;;;;;;25.81;40.24;99721.88;4260999;33;34358;-68
2023/05/30 07:18:29;;;;;;;10.00;6.53;;;;;;;25.80;40.32;99720.22;4260875;33;34586;-68
2023/05/30 07:20:56;;;;;;;10.20;6.45;;;;;;;25.81;40.32;99718.31;4260936;33;33987;-67
2023/05/30 07:23:24;;;;;;;9.10;6.35;;;;;;;25.82;40.29;99717.22;4260544;33;34044;-67
2023/05/30 07:25:52;;;;;;;10.73;5.95;;;;;;;25.82;40.23;99722.69;4261047;33;34228;-67
2023/05/30 07:28:20;;;;;;;11.38;6.10;;;;;;;25.83;40.18;99729.81;4248063;33;33973;-67
2023/05/30 07:30:48;;;;;;;11.70;6.95;;;;;;;25.84;40.18;99731.50;4246462;33;33887;-67
2023/05/30 07:33:15;;;;;;;8.85;6.30;;;;;;;25.84;40.18;99726.03;4246640;33;34876;-67
2023/05/30 07:35:43;;;;;;;9.07;6.25;;;;;;;25.85;40.17;99723.03;4246587;33;34507;-67
2023/05/30 07:38:11;;;;;;;9.68;6.20;;;;;;;25.85;40.04;99723.03;4233748;33;34251;-67
2023/05/30 07:40:38;;;;;;;9.00;6.28;;;;;;;25.86;40.05;99724.69;4246490;33;34673;-67
2023/05/30 07:43:06;;;;;;;11.02;6.18;;;;;;;25.85;40.04;99719.47;4246589;33;33946;-67
2023/05/30 07:45:34;;;;;;;10.55;5.72;;;;;;;25.87;40.03;99720.06;4246786;33;34911;-67
2023/05/30 07:48:01;;;;;;;10.15;6.28;;;;;;;25.86;40.00;99715.66;4246439;33;33522;-67
2023/05/30 07:50:29;;;;;;;9.73;5.82;;;;;;;25.88;39.93;99721.72;4246474;33;33983;-67
2023/05/30 07:52:56;;;;;;;11.30;6.37;;;;;;;25.87;39.90;99723.62;4246252;33;33902;-68
2023/05/30 07:55:26;;;;;;;9.25;6.00;;;;;;;25.88;39.89;99728.03;4247848;33;34074;-67
2023/05/30 07:57:53;;;;;;;11.50;6.80;;;;;;;25.88;39.90;99721.72;4258801;33;33361;-68
2023/05/30 08:00:21;;;;;;;12.70;6.70;;;;;;;25.89;39.76;99718.75;4259261;33;33832;-69
2023/05/30 08:02:49;;;;;;;12.32;6.20;;;;;;;25.89;39.75;99726.94;4255754;33;33656;-69
2023/05/30 08:05:17;;;;;;;9.00;5.90;;;;;;;25.91;39.67;99727.53;4246304;33;34139;-68
2023/05/30 08:07:45;;;;;;;10.70;6.05;;;;;;;25.90;39.66;99731.34;4257106;33;33313;-69
2023/05/30 08:10:13;;;;;;;10.70;6.15;;;;;;;25.90;39.68;99727.78;4260637;33;34939;-69
2023/05/30 08:12:40;;;;;;;11.00;6.62;;;;;;;25.92;39.67;99726.44;4260395;33;34025;-69
2023/05/30 08:15:09;;;;;;;11.55;7.00;;;;;;;25.92;39.64;99734.63;4254845;33;34894;-68
2023/05/30 08:17:40;;;;;;;;;;;;;;;25.93;39.56;99730.84;4245561;33;33440;-69
2023/05/30 08:20:08;;;;;;;;;;;;;;;26.02;39.37;99734.03;4246671;33;34181;-69
2023/05/30 08:22:36;;;;;;;13.62;6.25;;;;;;;26.05;39.35;99735.44;4246571;33;34316;-69
2023/05/30 08:25:05;;;;;;;9.45;6.00;;;;;;;25.96;39.51;99724.06;4246273;33;34789;-69
2023/05/30 08:27:34;;;;;;;8.82;5.97;;;;;;;25.94;39.59;99731.69;4246199;33;33823;-70
2023/05/30 08:30:02;;;;;;;9.57;5.90;;;;;;;25.92;39.58;99737.38;4246316;33;33617;-69
2023/05/30 08:32:32;;;;;;;9.77;5.97;;;;;;;25.92;39.63;99737.38;4246278;33;34214;-69
2023/05/30 08:35:00;;;;;;;9.60;5.75;;;;;;;25.94;39.58;99732.50;4245098;33;33919;-69
2023/05/30 08:37:28;;;;;;;10.27;6.35;;;;;;;25.94;39.59;99728.94;4245067;33;33215;-69
2023/05/30 08:39:58;;;;;;;11.15;6.50;;;;;;;25.94;39.63;99726.22;4246356;33;33911;-68
2023/05/30 08:42:26;;;;;;;12.95;5.90;;;;;;;25.95;39.64;99733.34;4244963;33;33749;-69
2023/05/30 08:44:54;;;;;;;12.32;6.20;;;;;;;25.95;39.65;99728.69;4246352;33;34005;-69
2023/05/30 08:47:21;;;;;;;9.32;6.12;;;;;;;25.97;39.67;99730.34;4246475;33;33898;-68
2023/05/30 08:49:51;;;;;;;9.57;6.05;;;;;;;25.95;39.68;99734.16;4245137;33;34339;-70
2023/05/30 08:52:18;;;;;;;8.63;6.50;;;;;;;25.97;39.70;99736.63;4255348;33;34683;-68
2023/05/30 08:54:51;;;;;;;8.80;6.05;;;;;;;25.98;39.73;99738.31;4258987;33;34868;-69
2023/05/30 08:57:22;;;;;;;10.77;6.28;;;;;;;25.97;39.80;99747.56;4259253;33;33663;-69
2023/05/30 08:59:50;;;;;;;9.27;5.75;;;;;;;25.98;39.83;99749.25;4259146;33;34083;-69
2023/05/30 09:02:20;;;;;;;9.52;6.35;;;;;;;26.00;39.85;99754.47;4259058;33;33633;-69
2023/05/30 09:04:50;;;;;;;9.00;6.20;;;;;;;25.99;39.85;99758.28;4259157;33;34253;-68
2023/05/30 09:07:18;;;;;;;11.55;6.45;;;;;;;26.00;39.93;99762.69;4260326;33;33222;-67
2023/05/30 09:09:45;;;;;;;10.32;5.85;;;;;;;26.00;39.98;99759.94;4236853;33;34053;-69
2023/05/30 09:12:13;;;;;;;11.52;6.07;;;;;;;26.00;40.01;99768.16;4250984;33;33751;-69
2023/05/30 09:14:41;;;;;;;9.15;6.18;;;;;;;26.00;40.05;99774.44;4258844;33;34632;-69
2023/05/30 09:17:08;;;;;;;11.80;6.25;;;;;;;25.99;40.07;99778.25;4259764;33;34208;-69
2023/05/30 09:19:36;;;;;;;11.68;6.53;;;;;;;26.00;40.12;99771.72;4247308;33;33814;-69
2023/05/30 09:22:05;;;;;;;10.35;6.40;;;;;;;26.00;40.15;99774.44;4260410;33;33913;-69
2023/05/30 09:24:53;;;;;;;9.00;6.07;;;;;;;26.00;40.21;99782.63;4258886;33;33865;-69
2023/05/30 09:27:22;;;;;;;9.68;6.10;;;;;;;26.03;40.24;99775.88;4255381;33;33387;-69
2023/05/30 09:29:49;;;;;;;10.82;6.60;;;;;;;26.01;40.28;99783.47;4245957;33;33811;-69
2023/05/30 09:32:17;;;;;;;9.98;5.80;;;;;;;26.01;40.34;99783.47;4245926;33;33888;-69
2023/05/30 09:34:55;;;;;;;9.32;6.12;;;;;;;26.00;40.35;99788.09;4245738;33;34866;-69
2023/05/30 09:37:23;;;;;;;9.95;6.15;;;;;;;26.02;40.33;99790.59;4249400;33;33750;-69
2023/05/30 09:40:07;;;;;;;15.18;6.72;;;;;;;26.02;40.36;99787.84;4260163;33;33708;-69
2023/05/30 09:42:44;;;;;;;11.73;6.70;;;;;;;26.03;40.37;99778.59;4260061;33;33178;-69
2023/05/30 09:45:13;;;;;;;10.70;6.10;;;;;;;26.02;40.43;99793.31;4259907;33;34567;-68
2023/05/30 09:47:41;;;;;;;10.43;6.55;;;;;;;26.00;40.44;99781.81;4252516;33;33351;-68
2023/05/30 09:50:11;;;;;;;10.15;6.85;;;;;;;26.01;40.42;99781.56;4254797;33;33834;-69
2023/05/30 09:52:40;;;;;;;9.15;5.97;;;;;;;26.03;40.46;99781.34;4259823;33;34153;-70
2023/05/30 09:55:08;;;;;;;11.38;6.25;;;;;;;26.03;40.48;99781.34;4258807;33;34663;-69
2023/05/30 09:57:37;;;;;;;13.02;6.62;;;;;;;26.01;40.50;99778.00;4253907;33;33582;-69
2023/05/30 10:00:13;;;;;;;10.02;6.65;;;;;;;26.01;40.46;99780.72;4232916;33;33964;-69
2023/05/30 10:02:42;;;;;;;9.70;6.05;;;;;;;26.02;40.45;99775.03;4244566;33;34152;-69
2023/05/30 10:05:23;;;;;;;9.55;5.75;;;;;;;26.02;40.45;99776.91;4244818;33;34171;-69
2023/05/30 10:07:53;;;;;;;8.98;6.15;;;;;;;26.04;40.43;99785.72;4251019;33;34363;-69
2023/05/30 10:10:20;;;;;;;;;;;;;;;26.02;40.44;99777.78;4260248;33;34710;-68
2023/05/30 10:12:52;;;;;;;9.48;6.32;;;;;;;26.11;40.25;99779.03;4259581;33;34127;-69
2023/05/30 10:15:23;;;;;;;10.80;6.70;;;;;;;26.06;40.38;99778.09;4260022;33;34111;-68
2023/05/30 10:18:07;;;;;;;8.77;5.93;;;;;;;26.04;40.43;99774.78;4251691;33;34581;-69
2023/05/30 10:20:36;;;;;;;8.88;5.47;;;;;;;26.05;40.39;99771.81;4245554;33;33955;-69
2023/05/30 10:23:07;;;;;;;9.63;5.95;;;;;;;26.02;40.44;99769.56;4245503;33;33913;-69
2023/05/30 10:25:36;;;;;;;8.55;5.28;;;;;;;26.03;40.41;99775.88;4245633;33;34013;-69
2023/05/30 10:28:04;;;;;;;10.00;6.45;;;;;;;26.03;40.43;99767.66;4251235;33;33702;-69
2023/05/30 10:30:32;;;;;;;8.77;5.47;;;;;;;26.04;40.43;99775.62;4258068;33;34746;-69
2023/05/30 10:33:03;;;;;;;9.82;6.03;;;;;;;26.04;40.44;99774.78;4258628;33;33678;-68
2023/05/30 10:35:32;;;;;;;8.88;5.75;;;;;;;26.04;40.43;99770.16;4253288;33;34510;-69
2023/05/30 10:38:04;;;;;;;8.48;5.70;;;;;;;26.06;40.43;99775.34;4259412;33;33638;-69
2023/05/30 10:40:40;;;;;;;8.38;5.97;;;;;;;26.04;40.45;99767.41;4258247;33;33938;-69
2023/05/30 10:43:08;;;;;;;10.07;6.20;;;;;;;26.07;40.43;99766.94;4259224;33;35441;-68
2023/05/30 10:46:03;;;;;;;8.80;5.55;;;;;;;26.08;40.47;99765.03;4258984;33;33994;-69
2023/05/30 10:48:52;;;;;;;10.10;5.70;;;;;;;26.09;40.49;99767.50;4259185;33;33793;-69
2023/05/30 10:51:19;;;;;;;8.13;6.00;;;;;;;26.08;40.52;99773.22;4259411;33;33700;-69
2023/05/30 10:53:47;;;;;;;11.07;5.60;;;;;;;26.05;40.56;99771.81;4258824;33;33997;-69
2023/05/30 10:56:51;;;;;;;7.55;5.65;;;;;;;26.04;40.58;99764.69;4259007;33;34448;-69
2023/05/30 10:59:19;;;;;;;8.80;5.80;;;;;;;26.11;40.51;99769.97;4256591;33;33582;-69
2023/05/30 11:02:00;;;;;;;8.63;5.28;;;;;;;26.07;40.54;99761.47;4258747;33;33994;-65
2023/05/30 11:04:42;;;;;;;9.48;5.75;;;;;;;26.09;40.57;99762.03;4259351;33;33725;-67
2023/05/30 11:07:13;;;;;;;7.72;5.20;;;;;;;26.08;40.63;99760.38;4258754;33;35074;-68
2023/05/30 11:09:41;;;;;;;18.98;6.05;;;;;;;26.08;40.62;99760.38;4246166;33;34449;-68
2023/05/30 11:12:23;;;;;;;7.97;5.40;;;;;;;26.08;40.60;99757.66;4243921;33;33597;-68
2023/05/30 11:14:55;;;;;;;9.30;5.25;;;;;;;26.09;40.49;99762.03;4244245;33;33224;-67
2023/05/30 11:17:30;;;;;;;9.80;5.70;;;;;;;26.08;40.51;99760.38;4249969;33;33480;-67
2023/05/30 11:20:16;;;;;;;9.13;5.82;;;;;;;26.12;40.50;99758.00;4251142;33;33727;-68
2023/05/30 11:23:03;;;;;;;13.80;7.60;;;;;;;26.13;40.48;99754.19;4251638;33;34802;-67
2023/05/30 11:25:33;;;;;;;17.92;8.57;;;;;;;26.13;40.56;99754.19;4244511;33;34023;-68
2023/05/30 11:28:03;;;;;;;23.62;9.75;;;;;;;26.09;40.68;99756.56;4257086;33;32816;-68
2023/05/30 11:30:37;;;;;;;16.35;8.52;;;;;;;26.10;40.76;99747.28;4259889;33;34464;-68
2023/05/30 11:33:15;;;;;;;14.38;8.40;;;;;;;26.09;40.82;99748.38;4258386;33;33872;-68
2023/05/30 11:35:47;;;;;;;14.20;7.50;;;;;;;26.11;40.84;99748.09;4236279;33;34037;-67
2023/05/30 11:38:19;;;;;;;13.48;7.43;;;;;;;26.11;40.89;99742.63;4260092;33;34861;-68
2023/05/30 11:40:47;;;;;;;13.80;7.68;;;;;;;26.10;40.90;99750.00;4260177;33;34343;-69